createdAt,value
2018-07-21T00:04:54.650Z,0.0
2018-07-21T00:15:40.191Z,0.0
2018-07-21T00:26:26.361Z,0.0
2018-07-21T00:37:12.066Z,0.0
2018-07-21T00:47:57.398Z,0.0
2018-07-21T00:58:45.189Z,0.0
2018-07-21T01:09:31.418Z,0.0
2018-07-21T01:20:18.679Z,0.0
2018-07-21T01:31:04.365Z,0.0
2018-07-21T01:41:52.702Z,0.0
2018-07-21T01:52:41.524Z,0.0
2018-07-21T02:04:06.430Z,0.0
2018-07-21T02:14:52.552Z,0.0
2018-07-21T02:25:44.112Z,0.0
2018-07-21T02:37:00.916Z,0.0
2018-07-21T02:47:16.268Z,0.0
2018-07-21T02:58:04.875Z,0.0
2018-07-21T03:08:19.445Z,4.0
2018-07-21T03:18:33.437Z,16.0
2018-07-21T03:29:20.769Z,40.0
2018-07-21T03:39:35.846Z,72.0
2018-07-21T03:50:27.482Z,116.0
2018-07-21T04:01:14.666Z,264.0
2018-07-21T04:12:03.267Z,532.0
2018-07-21T04:22:53.128Z,796.0
2018-07-21T04:45:54.286Z,1100.0
2018-07-21T04:56:40.314Z,1340.0
2018-07-21T05:07:27.545Z,1620.0
2018-07-21T05:18:17.536Z,2072.0
2018-07-21T05:29:03.695Z,2840.0
2018-07-21T05:39:17.532Z,3608.0
2018-07-21T05:49:32.000Z,3668.0
2018-07-21T05:59:46.487Z,4056.0
2018-07-21T06:10:31.685Z,4372.0
2018-07-21T06:20:46.094Z,4832.0
2018-07-21T06:31:00.326Z,6296.0
2018-07-21T06:41:14.814Z,6388.0
2018-07-21T06:52:02.585Z,7412.0
2018-07-21T07:02:51.632Z,7264.0
2018-07-21T07:13:08.151Z,6848.0
2018-07-21T07:23:22.517Z,9316.0
2018-07-21T07:34:10.117Z,11292.0
2018-07-21T07:45:15.432Z,12360.0
2018-07-21T07:56:07.526Z,14624.0
2018-07-21T08:06:21.280Z,17408.0
2018-07-21T08:16:35.542Z,19328.0
2018-07-21T08:26:49.970Z,21728.0
2018-07-21T08:37:04.851Z,19936.0
2018-07-21T08:47:18.311Z,27040.0
2018-07-21T08:57:29.583Z,26144.0
2018-07-21T09:07:43.962Z,21696.0
2018-07-21T09:17:58.380Z,30432.0
2018-07-21T09:28:43.964Z,35968.0
2018-07-21T09:38:56.150Z,35840.0
2018-07-21T09:49:10.861Z,36672.0
2018-07-21T09:59:22.715Z,34784.0
2018-07-21T10:09:37.305Z,41504.0
2018-07-21T10:20:22.632Z,31712.0
2018-07-21T10:30:35.455Z,45472.0
2018-07-21T10:40:50.862Z,21632.0
2018-07-21T10:51:07.550Z,20288.0
2018-07-21T11:01:21.693Z,21984.0
2018-07-21T11:11:35.456Z,44832.0
2018-07-21T11:21:52.089Z,24032.0
2018-07-21T11:51:40.822Z,49664.0
2018-07-21T12:02:39.325Z,45856.0
2018-07-21T12:15:23.946Z,48480.0
2018-07-21T12:27:59.103Z,18528.0
2018-07-21T12:38:13.384Z,16800.0
2018-07-21T12:48:30.069Z,19392.0
2018-07-21T12:58:45.917Z,40448.0
2018-07-21T13:09:31.396Z,10632.0
2018-07-21T13:19:45.504Z,8068.0
2018-07-21T13:30:31.186Z,6572.0
2018-07-21T13:40:45.555Z,6860.0
2018-07-21T13:51:30.650Z,4168.0
2018-07-21T14:01:45.091Z,4276.0
2018-07-21T14:12:30.966Z,5868.0
2018-07-21T14:22:43.052Z,7224.0
2018-07-21T14:32:57.314Z,10292.0
2018-07-21T14:46:43.656Z,12972.0
2018-07-21T15:20:42.445Z,14944.0
2018-07-21T15:35:52.566Z,13168.0
2018-07-21T15:46:38.266Z,11880.0
2018-07-21T16:34:52.668Z,6024.0
2018-07-21T16:45:06.423Z,5008.0
2018-07-21T16:55:22.531Z,4108.0
2018-07-21T17:06:08.156Z,3028.0
2018-07-21T17:16:22.657Z,1908.0
2018-07-21T17:27:11.630Z,2596.0
2018-07-21T17:37:26.755Z,2676.0
2018-07-21T17:48:12.912Z,2484.0
2018-07-21T17:58:41.511Z,2292.0
2018-07-21T18:08:57.584Z,1724.0
2018-07-21T18:19:12.425Z,1432.0
2018-07-21T18:29:49.893Z,1292.0
2018-07-21T18:40:38.189Z,976.0
2018-07-21T18:50:52.636Z,840.0
2018-07-21T19:01:06.206Z,780.0
2018-07-21T19:11:20.598Z,560.0
2018-07-21T19:21:34.950Z,308.0
2018-07-21T19:31:51.555Z,136.0
2018-07-21T19:42:07.376Z,56.0
2018-07-21T19:52:21.709Z,24.0
2018-07-21T20:03:12.670Z,8.0
2018-07-21T20:13:58.315Z,0.0
2018-07-21T20:24:47.838Z,0.0
2018-07-21T20:35:33.063Z,0.0
2018-07-21T20:45:47.342Z,0.0
2018-07-21T20:56:02.388Z,0.0
2018-07-21T21:06:16.975Z,0.0
2018-07-21T21:16:29.066Z,0.0
2018-07-21T21:27:14.949Z,0.0
2018-07-21T21:37:26.931Z,0.0
2018-07-21T21:47:41.606Z,0.0
2018-07-21T21:57:55.195Z,0.0
2018-07-21T22:08:10.443Z,0.0
2018-07-21T22:18:24.895Z,0.0
2018-07-21T22:28:36.864Z,0.0
2018-07-21T22:38:51.332Z,0.0
2018-07-21T22:49:38.770Z,0.0
2018-07-21T22:59:53.167Z,0.0
2018-07-21T23:10:06.756Z,0.0
2018-07-21T23:20:20.512Z,0.0
2018-07-21T23:30:34.981Z,0.0
2018-07-21T23:40:49.148Z,0.0
2018-07-21T23:51:03.283Z,0.0
